TimeEDT,TemperatureF,Dew PointF,Humidity,Sea Level PressureIn,VisibilityMPH,Wind Direction,Wind SpeedMPH,Gust SpeedMPH,PrecipitationIn,Events,Conditions,WindDirDegrees,DateUTC
12:53 AM,52.0,34.0,50,30.18,10.0,Variable,3.5,-,N/A,,Clear,0,2013-05-06 04:53:00
1:53 AM,46.9,35.1,63,30.18,10.0,North,3.5,-,N/A,,Clear,350,2013-05-06 05:53:00
2:53 AM,46.0,35.1,66,30.18,10.0,SSE,3.5,-,N/A,,Clear,150,2013-05-06 06:53:00
3:53 AM,43.0,35.1,74,30.18,10.0,SE,5.8,-,N/A,,Clear,130,2013-05-06 07:53:00
4:53 AM,42.1,34.0,73,30.19,10.0,Calm,Calm,-,N/A,,Clear,0,2013-05-06 08:53:00
5:53 AM,39.0,34.0,82,30.20,10.0,SE,5.8,-,N/A,,Clear,130,2013-05-06 09:53:00
6:53 AM,44.1,36.0,73,30.21,10.0,SE,4.6,-,N/A,,Clear,130,2013-05-06 10:53:00
7:53 AM,51.1,37.9,61,30.22,10.0,SE,4.6,-,N/A,,Clear,140,2013-05-06 11:53:00
8:53 AM,57.0,39.9,53,30.23,10.0,SE,5.8,-,N/A,,Clear,130,2013-05-06 12:53:00
9:53 AM,60.1,39.9,47,30.22,10.0,Calm,Calm,-,N/A,,Clear,0,2013-05-06 13:53:00
10:53 AM,64.9,39.0,39,30.21,10.0,ESE,5.8,-,N/A,,Clear,120,2013-05-06 14:53:00
11:53 AM,66.9,34.0,30,30.19,10.0,South,6.9,-,N/A,,Clear,170,2013-05-06 15:53:00
12:53 PM,71.1,30.0,22,30.16,10.0,SE,8.1,-,N/A,,Clear,130,2013-05-06 16:53:00
1:53 PM,73.0,36.0,26,30.14,10.0,Variable,5.8,-,N/A,,Clear,0,2013-05-06 17:53:00
2:53 PM,73.9,36.0,25,30.12,10.0,Variable,3.5,-,N/A,,Clear,0,2013-05-06 18:53:00
3:53 PM,75.9,34.0,22,30.09,10.0,Calm,Calm,-,N/A,,Clear,0,2013-05-06 19:53:00
4:53 PM,75.9,35.1,23,30.07,10.0,Calm,Calm,-,N/A,,Clear,0,2013-05-06 20:53:00
5:53 PM,75.9,35.1,23,30.06,10.0,East,5.8,-,N/A,,Clear,100,2013-05-06 21:53:00
6:53 PM,75.0,36.0,24,30.04,10.0,ESE,4.6,-,N/A,,Clear,110,2013-05-06 22:53:00
7:53 PM,70.0,37.0,30,30.05,10.0,East,3.5,-,N/A,,Clear,90,2013-05-06 23:53:00
8:53 PM,64.9,37.9,37,30.07,10.0,East,8.1,-,N/A,,Clear,90,2013-05-07 00:53:00
9:53 PM,62.1,37.0,39,30.09,10.0,East,5.8,-,N/A,,Clear,90,2013-05-07 01:53:00
10:53 PM,57.9,37.9,47,30.10,10.0,ESE,5.8,-,N/A,,Clear,110,2013-05-07 02:53:00
11:53 PM,55.0,39.0,55,30.10,10.0,Variable,5.8,-,N/A,,Clear,0,2013-05-07 03:53:00